createdAt,value
2023-04-19T00:00:47.104Z,15.40
2023-04-19T00:03:14.033Z,14.80
2023-04-19T00:05:40.873Z,14.07
2023-04-19T00:08:07.341Z,14.43
2023-04-19T00:10:35.090Z,13.80
2023-04-19T00:13:01.236Z,14.10
2023-04-19T00:15:27.666Z,14.00
2023-04-19T00:17:53.955Z,14.37
2023-04-19T00:20:20.500Z,14.00
2023-04-19T00:22:47.406Z,14.00
2023-04-19T00:25:13.489Z,14.77
2023-04-19T00:27:39.616Z,13.43
2023-04-19T00:30:06.824Z,14.33
2023-04-19T00:32:32.968Z,13.97
2023-04-19T00:34:59.100Z,13.70
2023-04-19T00:37:25.404Z,14.80
2023-04-19T00:39:52.146Z,14.50
2023-04-19T00:42:18.288Z,13.40
2023-04-19T00:44:44.540Z,14.50
2023-04-19T00:47:10.667Z,12.90
2023-04-19T00:49:37.054Z,13.27
2023-04-19T00:52:03.473Z,14.27
2023-04-19T00:54:29.833Z,13.50
2023-04-19T00:56:57.592Z,13.20
2023-04-19T00:59:24.489Z,13.97
2023-04-19T01:01:50.917Z,13.20
2023-04-19T01:04:17.576Z,14.00
2023-04-19T01:06:43.909Z,14.20
2023-04-19T01:09:10.047Z,14.87
2023-04-19T01:11:36.261Z,13.40
2023-04-19T01:14:03.238Z,13.60
2023-04-19T01:16:29.843Z,14.00
2023-04-19T01:18:56.300Z,13.70
2023-04-19T01:21:22.546Z,14.13
2023-04-19T01:23:49.830Z,14.13
2023-04-19T01:26:16.041Z,14.27
2023-04-19T01:28:42.187Z,13.50
2023-04-19T01:31:08.416Z,13.50
2023-04-19T01:33:34.579Z,13.77
2023-04-19T01:36:00.958Z,14.40
2023-04-19T01:38:27.116Z,14.47
2023-04-19T01:40:56.026Z,14.20
2023-04-19T01:43:22.505Z,14.17
2023-04-19T01:45:48.851Z,15.17
2023-04-19T01:48:15.006Z,14.13
2023-04-19T01:50:41.143Z,14.37
2023-04-19T01:53:07.368Z,14.47
2023-04-19T01:55:33.586Z,13.90
2023-04-19T01:58:00.370Z,13.73
2023-04-19T02:00:26.554Z,14.80
2023-04-19T02:02:52.950Z,14.00
2023-04-19T02:05:19.204Z,14.57
2023-04-19T02:07:45.541Z,14.87
2023-04-19T02:10:11.791Z,14.87
2023-04-19T02:12:38.009Z,14.33
2023-04-19T02:15:06.312Z,14.50
2023-04-19T02:17:32.506Z,13.40
2023-04-19T02:19:58.903Z,14.50
2023-04-19T02:22:25.165Z,14.60
2023-04-19T02:24:51.334Z,14.77
2023-04-19T02:27:17.631Z,13.87
2023-04-19T02:29:44.489Z,14.80
2023-04-19T02:32:12.240Z,15.27
2023-04-19T02:34:38.437Z,14.10
2023-04-19T02:37:04.685Z,13.33
2023-04-19T02:39:31.193Z,14.17
2023-04-19T02:41:57.361Z,15.80
2023-04-19T02:44:23.762Z,13.93
2023-04-19T02:46:50.046Z,14.97
2023-04-19T02:49:16.971Z,15.33
2023-04-19T02:51:43.277Z,15.77
2023-04-19T02:54:09.475Z,15.43
2023-04-19T02:56:35.598Z,14.57
2023-04-19T02:59:02.343Z,15.70
2023-04-19T03:01:28.905Z,16.00
2023-04-19T03:03:55.233Z,15.67
2023-04-19T03:06:22.454Z,14.90
2023-04-19T03:08:48.689Z,14.40
2023-04-19T03:11:15.650Z,15.43
2023-04-19T03:13:41.851Z,14.23
2023-04-19T03:16:08.402Z,14.17
2023-04-19T03:18:35.412Z,14.17
2023-04-19T03:21:01.828Z,14.83
2023-04-19T03:23:28.735Z,14.97
2023-04-19T03:25:55.540Z,14.23
2023-04-19T03:28:21.859Z,14.43
2023-04-19T03:30:48.110Z,15.13
2023-04-19T03:33:14.395Z,15.27
2023-04-19T03:35:40.513Z,15.00
2023-04-19T03:38:06.649Z,14.70
2023-04-19T03:40:33.709Z,14.67
2023-04-19T03:42:59.957Z,14.10
2023-04-19T03:45:26.562Z,13.57
2023-04-19T03:47:52.942Z,13.93
2023-04-19T03:50:19.129Z,13.70
2023-04-19T03:52:45.462Z,13.77
2023-04-19T03:55:11.762Z,13.10
2023-04-19T03:57:38.520Z,14.20
2023-04-19T04:00:07.468Z,13.47
2023-04-19T04:02:34.124Z,12.53
2023-04-19T04:05:00.861Z,12.53
2023-04-19T04:07:27.299Z,12.43
2023-04-19T04:09:53.399Z,12.17
2023-04-19T04:12:19.655Z,12.47
2023-04-19T04:14:46.403Z,11.40
2023-04-19T04:17:12.580Z,11.47
2023-04-19T04:19:38.710Z,11.73
2023-04-19T04:22:05.246Z,10.80
2023-04-19T04:24:32.191Z,9.83
2023-04-19T04:26:59.994Z,9.63
2023-04-19T04:29:26.168Z,8.73
2023-04-19T04:31:53.103Z,8.77
2023-04-19T04:34:19.743Z,8.77
2023-04-19T04:36:46.671Z,8.17
2023-04-19T04:39:13.130Z,8.50
2023-04-19T04:41:41.357Z,8.03
2023-04-19T04:44:12.181Z,7.40
2023-04-19T04:46:39.031Z,6.93
2023-04-19T04:49:06.630Z,7.17
2023-04-19T04:51:32.813Z,6.80
2023-04-19T04:53:58.966Z,7.23
2023-04-19T04:56:26.131Z,6.80
2023-04-19T04:58:52.327Z,7.00
2023-04-19T05:01:19.733Z,6.63
2023-04-19T05:03:46.118Z,6.20
2023-04-19T05:06:13.080Z,6.90
2023-04-19T05:08:39.322Z,6.23
2023-04-19T05:11:05.620Z,6.80
2023-04-19T05:13:31.721Z,6.70
2023-04-19T05:15:58.002Z,6.40
2023-04-19T05:18:24.242Z,6.33
2023-04-19T05:20:50.382Z,6.00
2023-04-19T05:23:17.863Z,6.10
2023-04-19T05:25:43.995Z,5.57
2023-04-19T05:28:10.144Z,5.33
2023-04-19T05:30:36.346Z,5.80
2023-04-19T05:33:02.684Z,6.30
2023-04-19T05:35:28.842Z,5.23
2023-04-19T05:37:55.414Z,5.60
2023-04-19T05:40:23.013Z,5.40
2023-04-19T05:42:49.160Z,5.87
2023-04-19T05:45:15.602Z,5.10
2023-04-19T05:47:41.998Z,5.73
2023-04-19T05:50:08.635Z,5.53
2023-04-19T05:52:34.902Z,5.03
2023-04-19T05:55:01.003Z,5.13
2023-04-19T05:57:27.735Z,5.13
2023-04-19T05:59:54.147Z,4.80
2023-04-19T06:02:20.672Z,4.73
2023-04-19T06:04:47.153Z,5.10
2023-04-19T06:07:30.188Z,5.23
2023-04-19T06:09:57.898Z,4.73
2023-04-19T06:12:24.070Z,4.90
2023-04-19T06:14:51.301Z,4.97
2023-04-19T06:17:22.551Z,4.40
2023-04-19T06:19:48.682Z,5.20
2023-04-19T06:22:14.821Z,5.13
2023-04-19T06:24:40.987Z,4.90
2023-04-19T06:27:07.093Z,4.70
2023-04-19T06:29:33.237Z,4.77
2023-04-19T06:32:00.151Z,4.87
2023-04-19T06:34:26.366Z,4.73
2023-04-19T06:36:52.802Z,5.07
2023-04-19T06:39:18.933Z,5.10
2023-04-19T06:41:45.062Z,5.73
2023-04-19T06:44:12.491Z,5.37
2023-04-19T06:46:38.677Z,4.87
2023-04-19T06:49:05.698Z,4.97
2023-04-19T06:51:32.484Z,5.13
2023-04-19T06:53:58.638Z,5.87
2023-04-19T06:56:44.370Z,5.57
2023-04-19T06:59:11.340Z,5.10
2023-04-19T07:01:37.846Z,5.13
2023-04-19T07:04:05.604Z,5.10
2023-04-19T07:06:32.333Z,5.33
2023-04-19T07:08:58.446Z,5.90
2023-04-19T07:11:24.639Z,5.87
2023-04-19T07:13:50.997Z,6.10
2023-04-19T07:16:17.216Z,5.37
2023-04-19T07:18:43.544Z,5.50
2023-04-19T07:21:11.124Z,6.13
2023-04-19T07:23:37.466Z,5.10
2023-04-19T07:26:04.033Z,5.83
2023-04-19T07:28:30.235Z,5.40
2023-04-19T07:30:56.520Z,5.30
2023-04-19T07:33:25.916Z,5.40
2023-04-19T07:35:54.210Z,5.17
2023-04-19T07:38:21.130Z,5.30
2023-04-19T07:40:47.241Z,5.47
2023-04-19T07:43:13.345Z,5.33
2023-04-19T07:45:39.890Z,5.53
2023-04-19T07:48:06.151Z,5.73
2023-04-19T07:50:32.315Z,5.87
2023-04-19T07:52:58.480Z,5.10
2023-04-19T07:55:25.268Z,5.10
2023-04-19T07:57:51.412Z,5.30
2023-04-19T08:00:20.659Z,4.87
2023-04-19T08:02:47.924Z,5.43
2023-04-19T08:05:16.524Z,5.13
2023-04-19T08:07:42.815Z,5.80
2023-04-19T08:10:09.703Z,5.33
2023-04-19T08:12:45.001Z,5.00
2023-04-19T08:17:46.494Z,4.60
2023-04-19T08:20:12.694Z,4.50
2023-04-19T08:22:40.106Z,5.37
2023-04-19T08:25:07.561Z,4.43
2023-04-19T08:27:33.715Z,4.20
2023-04-19T08:30:00.490Z,4.90
2023-04-19T08:32:26.743Z,4.50
2023-04-19T08:34:53.169Z,4.37
2023-04-19T08:37:19.282Z,4.47
2023-04-19T08:39:45.399Z,4.50
2023-04-19T08:42:24.808Z,4.20
2023-04-19T08:45:26.118Z,4.13
2023-04-19T08:47:59.953Z,4.47
2023-04-19T08:50:33.626Z,4.37
2023-04-19T08:53:16.116Z,3.90
2023-04-19T08:56:03.503Z,4.00
2023-04-19T09:01:05.395Z,3.80
2023-04-19T09:03:36.358Z,3.80
2023-04-19T09:06:07.501Z,3.23
2023-04-19T09:08:33.658Z,3.80
2023-04-19T09:11:00.947Z,3.30
2023-04-19T09:13:28.499Z,3.23
2023-04-19T09:15:56.392Z,3.27
2023-04-19T09:18:24.405Z,3.20
2023-04-19T09:20:56.316Z,3.47
2023-04-19T09:23:24.545Z,2.90
2023-04-19T09:26:15.088Z,3.23
2023-04-19T09:28:38.768Z,3.63
2023-04-19T09:31:33.183Z,3.03
2023-04-19T09:34:12.112Z,3.53
2023-04-19T09:36:38.251Z,3.87
2023-04-19T09:39:05.266Z,3.00
2023-04-19T09:41:32.784Z,3.77
2023-04-19T09:44:44.657Z,3.00
2023-04-19T09:46:56.142Z,3.20
2023-04-19T09:49:36.911Z,3.20
2023-04-19T09:52:09.790Z,3.50
2023-04-19T09:54:35.901Z,3.07
2023-04-19T09:57:02.881Z,3.10
2023-04-19T09:59:29.018Z,3.10
2023-04-19T10:01:55.631Z,2.93
2023-04-19T10:04:33.364Z,3.30
2023-04-19T10:07:29.236Z,3.10
2023-04-19T10:09:59.935Z,3.17
2023-04-19T10:12:52.274Z,2.97
2023-04-19T10:15:20.608Z,2.73
2023-04-19T10:17:46.975Z,3.00
2023-04-19T10:20:20.504Z,2.50
2023-04-19T10:22:47.142Z,3.00
2023-04-19T10:25:14.945Z,2.80
2023-04-19T10:27:47.836Z,2.33
2023-04-19T10:30:18.137Z,1.47
2023-04-19T10:32:45.603Z,1.70
2023-04-19T10:35:18.446Z,1.80
2023-04-19T10:38:02.901Z,1.80
2023-04-19T10:40:59.412Z,1.77
2023-04-19T10:43:26.411Z,1.37
2023-04-19T10:45:52.892Z,1.63
2023-04-19T10:48:32.629Z,1.50
2023-04-19T10:51:00.447Z,1.50
2023-04-19T10:53:50.913Z,1.47
2023-04-19T10:56:18.791Z,1.70
2023-04-19T10:59:20.714Z,1.90
2023-04-19T11:01:48.847Z,1.50
2023-04-19T11:04:16.038Z,1.83
2023-04-19T11:07:01.886Z,1.97
2023-04-19T11:09:31.231Z,1.60
2023-04-19T11:11:58.669Z,1.60
2023-04-19T11:14:25.226Z,1.80
2023-04-19T11:16:51.395Z,1.93
2023-04-19T11:19:18.416Z,1.60
2023-04-19T11:21:45.295Z,1.70
2023-04-19T11:24:12.392Z,2.07
2023-04-19T11:26:38.677Z,2.07
2023-04-19T11:29:05.636Z,1.90
2023-04-19T11:31:32.156Z,1.87
2023-04-19T11:33:58.600Z,2.03
2023-04-19T11:36:24.795Z,1.63
2023-04-19T11:38:52.508Z,1.90
2023-04-19T11:41:19.328Z,1.80
2023-04-19T11:43:46.092Z,2.13
2023-04-19T11:46:12.947Z,2.00
2023-04-19T11:48:49.672Z,2.07
2023-04-19T11:51:16.112Z,1.90
2023-04-19T11:53:42.350Z,2.17
2023-04-19T11:56:09.487Z,2.00
2023-04-19T11:58:39.220Z,2.10
2023-04-19T12:01:08.100Z,2.23
2023-04-19T12:03:35.483Z,2.10
2023-04-19T12:06:03.112Z,2.10
2023-04-19T12:08:30.687Z,2.40
2023-04-19T12:10:57.595Z,2.50
2023-04-19T12:13:24.556Z,2.43
2023-04-19T12:15:51.655Z,2.20
2023-04-19T12:18:18.047Z,2.67
2023-04-19T12:20:45.363Z,2.60
2023-04-19T12:23:13.197Z,2.70
2023-04-19T12:25:39.893Z,2.50
2023-04-19T12:28:06.255Z,2.37
2023-04-19T12:30:34.507Z,2.67
2023-04-19T12:33:01.559Z,2.40
2023-04-19T12:35:28.364Z,2.80
2023-04-19T12:37:55.589Z,2.60
2023-04-19T12:40:22.471Z,2.70
2023-04-19T12:42:48.841Z,2.70
2023-04-19T12:45:15.187Z,2.17
2023-04-19T12:47:42.462Z,2.77
2023-04-19T12:50:09.474Z,2.30
2023-04-19T12:52:35.830Z,2.80
2023-04-19T12:55:02.271Z,2.50
2023-04-19T12:57:28.803Z,2.40
2023-04-19T12:59:54.945Z,2.70
2023-04-19T13:02:21.186Z,2.80
2023-04-19T13:04:47.647Z,2.83
2023-04-19T13:07:14.424Z,2.83
2023-04-19T13:09:40.528Z,3.20
2023-04-19T13:12:07.085Z,2.90
2023-04-19T13:14:33.224Z,3.20
2023-04-19T13:16:59.391Z,3.10
2023-04-19T13:19:26.035Z,2.90
2023-04-19T13:21:52.281Z,2.90
2023-04-19T13:24:19.200Z,3.17
2023-04-19T13:26:45.566Z,2.90
2023-04-19T13:29:11.755Z,2.80
2023-04-19T13:31:37.946Z,2.80
2023-04-19T13:34:04.134Z,3.27
2023-04-19T13:36:30.703Z,2.80
2023-04-19T13:38:57.052Z,2.70
2023-04-19T13:41:23.806Z,3.10
2023-04-19T13:43:49.970Z,3.43
2023-04-19T13:46:16.103Z,3.47
2023-04-19T13:48:42.416Z,3.00
2023-04-19T13:51:08.561Z,2.90
2023-04-19T13:53:34.676Z,2.90
2023-04-19T13:56:00.840Z,3.17
2023-04-19T13:58:27.691Z,3.10
2023-04-19T14:00:54.015Z,3.70
2023-04-19T14:03:22.268Z,3.50
2023-04-19T14:05:48.466Z,3.90
2023-04-19T14:08:14.577Z,3.97
2023-04-19T14:10:40.766Z,3.83
2023-04-19T14:13:06.978Z,3.43
2023-04-19T14:15:34.000Z,3.77
2023-04-19T14:18:00.252Z,3.10
2023-04-19T14:20:26.547Z,3.90
2023-04-19T14:22:54.397Z,3.40
2023-04-19T14:25:20.768Z,3.40
2023-04-19T14:27:46.973Z,3.13
2023-04-19T14:30:13.357Z,2.80
2023-04-19T14:32:40.198Z,2.80
2023-04-19T14:35:07.791Z,3.03
2023-04-19T14:37:34.918Z,3.30
2023-04-19T14:40:01.092Z,3.00
2023-04-19T14:42:27.470Z,3.50
2023-04-19T14:44:53.776Z,3.70
2023-04-19T14:47:20.217Z,3.30
2023-04-19T14:49:47.028Z,3.20
2023-04-19T14:52:13.174Z,3.40
2023-04-19T14:54:39.429Z,4.10
2023-04-19T14:57:05.752Z,2.97
2023-04-19T14:59:32.080Z,2.63
2023-04-19T15:01:58.371Z,3.23
2023-04-19T15:04:24.975Z,3.00
2023-04-19T15:06:51.885Z,3.10
2023-04-19T15:09:18.461Z,3.33
2023-04-19T15:11:44.862Z,2.80
2023-04-19T15:14:11.037Z,2.73
2023-04-19T15:16:37.296Z,2.70
2023-04-19T15:19:06.451Z,2.63
2023-04-19T15:21:32.726Z,2.90
2023-04-19T15:23:59.589Z,2.50
2023-04-19T15:26:25.780Z,3.10
2023-04-19T15:28:52.146Z,3.00
2023-04-19T15:31:18.382Z,2.83
2023-04-19T15:33:44.501Z,2.93
2023-04-19T15:36:10.676Z,2.47
2023-04-19T15:38:36.819Z,2.50
2023-04-19T15:41:04.156Z,2.80
2023-04-19T15:43:30.693Z,2.37
2023-04-19T15:45:56.886Z,2.33
2023-04-19T15:48:23.103Z,2.70
2023-04-19T15:50:49.904Z,2.40
2023-04-19T15:53:16.167Z,2.80
2023-04-19T15:55:42.514Z,2.60
2023-04-19T15:58:09.286Z,2.80
2023-04-19T16:00:35.487Z,2.30
2023-04-19T16:03:02.019Z,2.80
2023-04-19T16:05:28.359Z,2.30
2023-04-19T16:08:02.012Z,2.47
2023-04-19T16:10:28.192Z,2.60
2023-04-19T16:12:54.345Z,2.50
2023-04-19T16:15:21.148Z,2.30
2023-04-19T16:17:47.293Z,2.70
2023-04-19T16:20:13.470Z,2.20
2023-04-19T16:22:39.602Z,2.40
2023-04-19T16:25:06.765Z,2.57
2023-04-19T16:27:32.998Z,2.43
2023-04-19T16:29:59.144Z,2.03
2023-04-19T16:32:26.059Z,2.20
2023-04-19T16:34:52.291Z,2.00
2023-04-19T16:37:18.880Z,2.20
2023-04-19T16:39:45.405Z,2.10
2023-04-19T16:42:11.518Z,2.20
2023-04-19T16:44:37.791Z,2.07
2023-04-19T16:47:04.034Z,2.30
2023-04-19T16:49:30.750Z,2.27
2023-04-19T16:51:56.905Z,1.70
2023-04-19T16:54:23.120Z,2.10
2023-04-19T16:56:49.294Z,1.70
2023-04-19T16:59:15.643Z,1.90
2023-04-19T17:01:43.423Z,2.10
2023-04-19T17:04:09.944Z,1.93
2023-04-19T17:06:37.000Z,2.00
2023-04-19T17:09:04.758Z,1.90
2023-04-19T17:11:31.841Z,2.27
2023-04-19T17:13:58.315Z,1.97
2023-04-19T17:16:24.527Z,1.97
2023-04-19T17:18:51.584Z,2.00
2023-04-19T17:21:17.723Z,1.73
2023-04-19T17:23:45.290Z,2.20
2023-04-19T17:26:11.664Z,2.10
2023-04-19T17:28:38.074Z,1.73
2023-04-19T17:31:04.592Z,2.00
2023-04-19T17:33:30.783Z,2.20
2023-04-19T17:35:57.040Z,2.10
2023-04-19T17:38:23.205Z,1.80
2023-04-19T17:40:50.278Z,2.07
2023-04-19T17:43:16.404Z,1.77
2023-04-19T17:45:43.774Z,1.90
2023-04-19T17:48:10.004Z,2.00
2023-04-19T17:50:36.314Z,2.30
2023-04-19T17:53:02.432Z,2.10
2023-04-19T17:55:28.735Z,2.23
2023-04-19T17:57:55.654Z,2.03
2023-04-19T18:00:22.005Z,2.10
2023-04-19T18:02:48.441Z,2.40
2023-04-19T18:05:14.754Z,2.13
2023-04-19T18:07:41.064Z,1.93
2023-04-19T18:10:08.206Z,2.20
2023-04-19T18:12:34.505Z,2.43
2023-04-19T18:15:01.460Z,3.67
2023-04-19T18:17:28.058Z,2.30
2023-04-19T18:19:54.185Z,2.73
2023-04-19T18:22:21.040Z,2.23
2023-04-19T18:24:50.669Z,2.07
2023-04-19T18:27:16.912Z,2.47
2023-04-19T18:29:43.043Z,2.57
2023-04-19T18:32:10.248Z,2.70
2023-04-19T18:34:36.593Z,2.63
2023-04-19T18:37:04.255Z,2.40
2023-04-19T18:39:30.499Z,2.70
2023-04-19T18:41:58.240Z,2.60
2023-04-19T18:44:38.915Z,2.43
2023-04-19T18:47:11.408Z,2.40
2023-04-19T18:49:37.610Z,2.40
2023-04-19T18:52:04.334Z,2.60
2023-04-19T18:54:30.696Z,2.40
2023-04-19T18:57:21.904Z,2.77
2023-04-19T18:59:44.193Z,2.90
2023-04-19T19:02:11.285Z,2.80
2023-04-19T19:04:52.050Z,2.63
2023-04-19T19:07:34.828Z,2.60
2023-04-19T19:10:10.382Z,2.60
2023-04-19T19:12:42.866Z,2.80
2023-04-19T19:15:09.846Z,2.60
2023-04-19T19:17:36.752Z,2.73
2023-04-19T19:20:04.630Z,3.20
2023-04-19T19:22:34.351Z,2.70
2023-04-19T19:25:00.660Z,2.93
2023-04-19T19:27:26.808Z,2.90
2023-04-19T19:29:53.047Z,3.70
2023-04-19T19:32:19.911Z,3.50
2023-04-19T19:34:55.629Z,3.07
2023-04-19T19:37:25.419Z,2.97
2023-04-19T19:39:52.224Z,3.07
2023-04-19T19:42:18.959Z,3.97
2023-04-19T19:44:45.158Z,2.90
2023-04-19T19:47:12.584Z,3.20
2023-04-19T19:52:08.654Z,3.50
2023-04-19T19:54:34.898Z,3.83
2023-04-19T19:59:49.344Z,3.70
2023-04-19T20:02:18.910Z,4.00
2023-04-19T20:04:45.140Z,3.53
2023-04-19T20:07:25.798Z,3.10
2023-04-19T20:09:58.602Z,3.00
2023-04-19T20:12:24.805Z,2.80
2023-04-19T20:14:50.983Z,2.80
2023-04-19T20:17:17.114Z,3.20
2023-04-19T20:19:44.191Z,4.00
2023-04-19T20:22:10.450Z,2.80
2023-04-19T20:24:37.588Z,3.20
2023-04-19T20:27:03.910Z,3.17
2023-04-19T20:29:30.028Z,3.00
2023-04-19T20:31:56.500Z,2.80
2023-04-19T20:34:22.933Z,3.20
2023-04-19T20:36:49.414Z,3.03
2023-04-19T20:39:16.032Z,3.00
2023-04-19T20:41:46.999Z,3.27
2023-04-19T20:44:13.126Z,2.73
2023-04-19T20:46:39.489Z,3.13
2023-04-19T20:49:05.613Z,2.93
2023-04-19T20:51:32.062Z,3.50
2023-04-19T20:53:58.264Z,3.10
2023-04-19T20:56:24.606Z,2.90
2023-04-19T20:58:51.364Z,3.30
2023-04-19T21:01:18.090Z,3.00
2023-04-19T21:03:45.083Z,3.17
2023-04-19T21:06:11.833Z,3.33
2023-04-19T21:08:38.030Z,3.13
2023-04-19T21:11:04.198Z,3.10
2023-04-19T21:13:31.152Z,3.40
2023-04-19T21:15:58.075Z,3.20
2023-04-19T21:18:25.072Z,3.60
2023-04-19T21:20:51.341Z,3.30
2023-04-19T21:23:17.482Z,4.13
2023-04-19T21:25:43.615Z,3.70
2023-04-19T21:28:10.849Z,3.60
2023-04-19T21:30:39.994Z,3.73
2023-04-19T21:33:06.845Z,3.83
2023-04-19T21:35:33.542Z,4.37
2023-04-19T21:37:59.722Z,3.47
2023-04-19T21:40:25.855Z,3.87
2023-04-19T21:42:52.186Z,3.63
2023-04-19T21:45:18.311Z,3.90
2023-04-19T21:47:44.975Z,3.40
2023-04-19T21:50:12.190Z,3.37
2023-04-19T21:52:38.472Z,3.10
2023-04-19T21:55:05.779Z,3.20
2023-04-19T21:57:32.063Z,2.63
2023-04-19T21:59:59.223Z,3.10
2023-04-19T22:02:25.540Z,3.03
2023-04-19T22:04:52.999Z,3.23
2023-04-19T22:07:19.990Z,3.07
2023-04-19T22:09:46.088Z,3.23
2023-04-19T22:12:12.896Z,3.30
2023-04-19T22:14:39.004Z,3.40
2023-04-19T22:17:05.269Z,3.50
2023-04-19T22:19:31.408Z,3.67
2023-04-19T22:21:57.760Z,3.07
2023-04-19T22:24:24.555Z,3.23
2023-04-19T22:26:52.091Z,3.30
2023-04-19T22:29:19.250Z,3.60
2023-04-19T22:31:45.850Z,3.63
2023-04-19T22:34:12.040Z,3.50
2023-04-19T22:36:38.278Z,4.03
2023-04-19T22:39:04.682Z,3.20
2023-04-19T22:41:32.152Z,3.57
2023-04-19T22:43:59.275Z,3.60
2023-04-19T22:46:25.521Z,3.40
2023-04-19T22:48:51.737Z,3.20
2023-04-19T22:51:18.035Z,4.33
2023-04-19T22:53:44.523Z,3.33
2023-04-19T22:56:10.667Z,4.13
2023-04-19T22:58:37.400Z,3.47
2023-04-19T23:01:03.584Z,3.47
2023-04-19T23:03:29.961Z,3.00
2023-04-19T23:05:56.120Z,3.80
2023-04-19T23:08:22.502Z,3.50
2023-04-19T23:10:50.175Z,3.10
2023-04-19T23:13:16.465Z,3.60
2023-04-19T23:15:43.323Z,3.17
2023-04-19T23:18:10.762Z,3.67
2023-04-19T23:20:36.889Z,3.43
2023-04-19T23:23:04.439Z,3.60
2023-04-19T23:25:30.841Z,3.43
2023-04-19T23:27:57.057Z,3.00
2023-04-19T23:30:23.154Z,3.30
2023-04-19T23:32:50.064Z,3.00
2023-04-19T23:35:16.292Z,3.40
2023-04-19T23:37:42.422Z,3.50
2023-04-19T23:40:09.526Z,3.10
2023-04-19T23:42:36.628Z,3.27
2023-04-19T23:45:03.273Z,3.00
2023-04-19T23:47:29.569Z,3.77
2023-04-19T23:49:56.487Z,2.87
2023-04-19T23:52:22.609Z,3.13
2023-04-19T23:54:49.027Z,3.00
2023-04-19T23:57:15.323Z,2.90
2023-04-19T23:59:41.650Z,3.00
